Latest Coastal Weather Observations for Learmonth

IDW60701

Issued at 9:13 pm WST Monday 20 February 2017 (issued every 10 minutes, with the page automatically refreshed every 10 minutes)

About coastal observations | Map of coastal stations | Coastal observations for WA | Marine services | Other Formats
Station Details ID: 005007 Name: LEARMONTH AIRPORT Lat: -22.24 Lon: 114.10 Height: 5.0 m
Data from the previous 72 hours. | See also: Recent months at Learmonth
Date/Time
WST
Temp
°C
Wind Pressure Rain since
9am
mm
Weather Cloud Vis
km
Sea
Height
m
Swell
Dir  Spd
kts
Gust
kts
hPa Trend Height
m
Period
s
Dir
20/09:00pm 28.8 SSW 8 11 1010.7 - 0.0 - - 10 - - - -
20/08:30pm 29.7 SE 10 12 1010.9 - 0.0 - Partly cloudy 10 - - - -
20/08:00pm 30.4 SW 9 12 1009.9 - 0.0 - - 10 - - - -
20/07:30pm 30.8 WSW 11 15 1009.3 - 0.0 - - 10 - - - -
20/07:00pm 31.6 WSW 13 16 1008.8 - 0.0 - - 10 - - - -
20/06:30pm 33.0 WSW 12 16 1008.2 - 0.0 - - 10 - - - -
20/06:00pm 34.1 W 12 16 1007.7 - 0.0 - - 10 - - - -
20/05:30pm 34.8 W 12 16 1007.4 - 0.0 - - 10 - - - -
20/05:00pm 35.5 W 14 18 1007.4 - 0.0 - - 10 - - - -
20/04:30pm 36.1 W 11 16 1007.2 - 0.0 - - 10 - - - -
20/04:00pm 36.4 W 13 17 1007.4 - 0.0 - - 10 - - - -
20/03:30pm 36.0 NE 6 9 1007.5 - 0.0 - - 10 - - - -
20/03:00pm 35.9 ENE 8 10 1007.7 - 0.0 - - 10 - - - -
20/02:30pm 35.7 ENE 8 11 1007.9 - 0.0 - - 10 - - - -
20/02:00pm 35.7 E 8 10 1008.2 - 0.0 - - 10 - - - -
20/01:30pm 35.2 E 7 11 1008.7 - 0.0 - - 10 - - - -
20/01:00pm 35.3 E 7 11 1009.1 - 0.0 - Mostly clear 10 - - - -
20/12:30pm 33.8 ESE 7 10 1009.4 - 0.0 - Mostly clear 10 - - - -
20/12:00pm 33.1 ESE 5 9 1009.7 - 0.0 - Mostly clear 10 - - - -
20/11:30am 32.7 E 5 7 1010.0 - 0.0 - - 10 - - - -
20/11:00am 32.4 E 5 7 1010.5 - 0.0 - - 10 - - - -
20/10:30am 32.0 E 5 7 1010.6 - 0.0 - - 10 - - - -
20/10:00am 30.6 ENE 5 7 1010.9 - 0.0 - - 10 - - - -
20/09:30am 30.4 NE 5 8 1010.9 - 0.0 - - 10 - - - -
20/09:00am 30.1 ENE 5 8 1010.8 - 0.0 - - 10 - - - -
20/08:30am 29.5 ENE 4 6 1010.9 - 0.0 - - 10 - - - -
20/08:00am 29.1 ENE 5 6 1010.8 - 0.0 - - 10 - - - -
20/07:30am 28.6 E 6 8 1010.7 - 0.0 - - 10 - - - -
20/07:00am 27.5 ENE 3 4 1010.5 - 0.0 - - 10 - - - -
20/06:30am 25.5 N 4 4 1010.3 - 0.0 - - 10 - - - -
20/06:00am 25.4 NNW 5 5 1010.0 - 0.0 - - 10 - - - -
20/05:30am 25.7 NNW 3 4 1009.8 - 0.0 - - 10 - - - -
20/05:00am 25.7 CALM 0 0 1009.8 - 0.0 - - 10 - - - -
20/04:30am 26.0 CALM 0 3 1009.5 - 0.0 - - 10 - - - -
20/04:00am 26.3 CALM 0 0 1009.6 - 0.0 - - 10 - - - -
20/03:30am 26.4 W 2 3 1009.7 - 0.0 - - 10 - - - -
20/03:00am 26.3 CALM 0 0 1009.9 - 0.0 - - 10 - - - -
20/02:30am 26.3 S 1 3 1010.3 - 0.0 - - 10 - - - -
20/02:00am 26.6 S 4 6 1010.5 - 0.0 - - 10 - - - -
20/01:30am 27.3 SE 12 15 1010.7 - 0.0 - - 10 - - - -
20/01:00am 26.9 CALM 0 3 1010.6 - 0.0 - - 10 - - - -
20/12:30am 26.6 W 3 5 1010.5 - 0.0 - - 10 - - - -
20/12:00am 26.5 WSW 4 5 1010.6 - 0.0 - - 10 - - - -
 
Date/Time
WST
Temp
°C
Wind Pressure Rain since
9am
mm
Weather Cloud Vis
km
Sea
Height
m
Swell
Dir  Spd
kts
Gust
kts
hPa Trend Height
m
Period
s
Dir
19/11:30pm 26.6 SSW 6 8 1011.1 - 0.0 - - 10 - - - -
19/11:00pm 27.2 S 11 16 1011.6 - 0.0 - - 10 - - - -
19/10:30pm 27.8 S 13 17 1011.6 - 0.0 - Partly cloudy 10 - - - -
19/10:00pm 28.5 S 11 14 1011.4 - 0.0 - Partly cloudy 10 - - - -
19/09:30pm 29.2 SW 10 13 1010.4 - 0.0 - Partly cloudy 10 - - - -
19/09:00pm 29.2 WSW 10 12 1009.5 - 0.0 - - 10 - - - -
19/08:30pm 29.6 W 9 13 1009.5 - 0.0 - - 10 - - - -
19/08:00pm 29.9 W 10 14 1009.3 - 0.0 - - 10 - - - -
19/07:30pm 30.1 W 11 15 1009.1 - 0.0 - - 10 - - - -
19/07:00pm 30.8 W 11 15 1008.8 - 0.0 - - 10 - - - -
19/06:30pm 32.0 W 12 15 1008.4 - 0.0 - - 10 - - - -
19/06:00pm 33.5 W 11 14 1008.2 - 0.0 - - 10 - - - -
19/05:30pm 34.7 WSW 11 14 1008.1 - 0.0 - - 10 - - - -
19/05:00pm 35.7 W 11 14 1008.1 - 0.0 - - 10 - - - -
19/04:30pm 36.3 SW 3 6 1008.3 - 0.0 - - 10 - - - -
19/04:00pm 35.8 NE 1 5 1008.5 - 0.0 - - 10 - - - -
19/03:30pm 35.8 N 5 8 1008.7 - 0.0 - - 10 - - - -
19/03:00pm 34.6 NE 5 7 1009.1 - 0.0 - - 10 - - - -
19/02:30pm 34.4 ENE 6 7 1009.5 - 0.0 - - 10 - - - -
19/02:00pm 34.2 E 7 9 1009.7 - 0.0 - - 10 - - - -
19/01:30pm 33.4 E 6 10 1010.0 - 0.0 - - 10 - - - -
19/01:00pm 32.8 E 5 10 1010.3 - 0.0 - - 10 - - - -
19/12:30pm 31.6 ESE 6 8 1010.7 - 0.0 - - 10 - - - -
19/12:00pm 30.6 E 8 11 1011.0 - 0.0 - - 10 - - - -
19/11:30am 30.6 E 7 10 1011.2 - 0.0 - - 10 - - - -
19/11:00am 30.4 E 7 11 1011.5 - 0.0 - - 10 - - - -
19/10:30am 30.3 E 7 10 1011.6 - 0.0 - - 10 - - - -
19/10:00am 30.3 SE 7 10 1011.9 - 0.0 - - 10 - - - -
19/09:30am 29.2 SE 6 9 1012.2 - 0.0 - - 10 - - - -
19/09:00am 28.7 ESE 4 6 1012.3 - 2.6 - - 10 - - - -
19/08:30am 27.7 SSE 5 6 1012.5 - 2.6 - - 10 - - - -
19/08:00am 26.5 SSE 4 6 1012.6 - 2.6 - - 10 - - - -
19/07:30am 25.9 S 4 6 1012.5 - 2.6 - Partly cloudy 10 - - - -
19/07:00am 24.8 S 6 7 1012.3 - 2.6 - - 10 - - - -
19/06:30am 24.5 SSW 5 7 1012.0 - 2.6 - - 10 - - - -
19/06:00am 24.5 SSW 5 5 1011.7 - 2.6 - - 10 - - - -
19/05:30am 24.5 SW 5 6 1011.6 - 2.6 - - 10 - - - -
19/05:00am 24.5 SW 6 7 1011.7 - 2.6 - - 10 - - - -
19/04:30am 24.6 SW 5 6 1011.6 - 2.4 - - 10 - - - -
19/04:00am 24.6 SW 5 6 1011.5 - 2.4 - - 10 - - - -
19/03:30am 24.5 SSW 5 7 1011.3 - 2.4 - - 10 - - - -
19/03:00am 24.3 S 6 8 1011.2 - 2.4 - - 10 - - - -
19/02:30am 24.1 SSW 13 19 1011.1 - 2.4 - Partly cloudy 10 - - - -
19/02:21am 24.8 S 15 19 1011.3 - 1.8 - Partly cloudy 10 - - - -
19/02:00am 24.9 SSW 4 5 1012.5 - 1.6 - Partly cloudy 10 - - - -
19/01:30am 24.6 SW 6 8 1012.4 - 1.6 - Partly cloudy 10 - - - -
19/01:21am 24.6 SW 6 8 1012.5 - 1.6 - Partly cloudy 10 - - - -
19/01:02am 24.8 SSW 5 7 1012.6 - 1.0 - Partly cloudy 2 - - - -
19/01:00am 24.8 S 5 8 1012.7 - 0.6 - Partly cloudy 10 - - - -
19/12:30am 25.4 S 10 14 1012.7 - 0.2 - Partly cloudy 10 - - - -
19/12:00am 25.9 SSW 7 10 1012.4 - 0.2 - Cloudy 10 - - - -
 
Date/Time
WST
Temp
°C
Wind Pressure Rain since
9am
mm
Weather Cloud Vis
km
Sea
Height
m
Swell
Dir  Spd
kts
Gust
kts
hPa Trend Height
m
Period
s
Dir
18/11:30pm 25.9 SW 5 6 1012.2 - 0.2 - Partly cloudy 10 - - - -
18/11:00pm 25.7 SSW 6 8 1012.6 - 0.2 - Partly cloudy 10 - - - -
18/10:30pm 26.7 SSE 5 7 1012.8 - 0.2 - Partly cloudy 10 - - - -
18/10:00pm 26.1 SE 4 6 1012.3 - 0.2 - - 10 - - - -
18/09:30pm 25.4 SE 9 13 1012.1 - 0.2 - - 10 - - - -
18/09:00pm 25.4 SE 14 18 1011.9 - 0.2 - Partly cloudy 10 - - - -
18/08:32pm 29.3 E 17 29 1011.8 - 0.2 - Partly cloudy 10 - - - -
18/08:30pm 29.3 E 15 21 1011.7 - 0.2 - Partly cloudy 10 - - - -
18/08:00pm 29.4 N 11 14 1009.9 - 0.2 - - 10 - - - -
18/07:30pm 29.6 NNE 11 15 1010.0 - 0.2 - - 10 - - - -
18/07:00pm 29.8 NNE 11 13 1009.7 - 0.2 - - 10 - - - -
18/06:30pm 30.6 N 11 14 1009.5 - 0.2 - - 10 - - - -
18/06:00pm 31.0 N 11 14 1009.3 - 0.2 - - 10 - - - -
18/05:30pm 31.5 N 12 15 1009.0 - 0.2 - - 10 - - - -
18/05:00pm 32.3 N 13 16 1008.8 - 0.2 - - 10 - - - -
18/04:30pm 32.2 N 14 18 1009.1 - 0.2 - - 10 - - - -
18/04:00pm 32.2 N 15 19 1009.2 - 0.2 - - 10 - - - -
18/03:30pm 32.2 N 15 19 1009.3 - 0.2 - - 10 - - - -
18/03:00pm 32.1 N 13 17 1009.4 - 0.2 - - 10 - - - -
18/02:30pm 32.0 N 14 16 1009.8 - 0.2 - - 10 - - - -
18/02:00pm 32.6 N 14 17 1010.1 - 0.2 - - 10 - - - -
18/01:30pm 31.6 N 13 17 1010.4 - 0.2 - - 10 - - - -
18/01:00pm 31.9 N 11 13 1010.7 - 0.2 - - 10 - - - -
18/12:30pm 32.4 NNE 10 13 1010.8 - 0.2 - - 10 - - - -
18/12:00pm 32.1 NE 9 12 1010.9 - 0.2 - - 10 - - - -
18/11:30am 32.1 ENE 9 13 1011.2 - 0.2 - - 10 - - - -
18/11:00am 31.4 ENE 8 11 1011.3 - 0.2 - - 10 - - - -
18/10:30am 30.9 E 9 12 1011.6 - 0.2 - - 10 - - - -
18/10:00am 30.5 E 12 16 1011.8 - 0.2 - - 10 - - - -
18/09:30am 30.4 E 14 17 1011.9 - 0.0 - - 10 - - - -
18/09:00am 29.9 E 13 17 1011.5 - 3.2 - - 10 - - - -
18/08:30am 29.4 E 12 23 1011.4 - 3.2 - - 10 - - - -
18/08:00am 29.0 E 13 18 1011.2 - 3.2 - - 10 - - - -
18/07:30am 28.6 ESE 11 13 1010.9 - 3.2 - - 10 - - - -
18/07:00am 27.8 ESE 6 9 1010.7 - 3.2 - - 10 - - - -
18/06:30am 26.6 SE 5 6 1010.2 - 3.2 - - 10 - - - -
18/06:00am 26.2 CALM 0 0 1009.8 - 3.2 - - 10 - - - -
18/05:30am 26.0 S 1 3 1009.8 - 3.2 - - 10 - - - -
18/05:00am 26.1 SW 4 5 1009.4 - 3.2 - - 10 - - - -
18/04:30am 26.0 S 5 6 1009.4 - 3.2 - - 10 - - - -
18/04:00am 26.1 SSW 2 5 1009.4 - 3.2 - - 10 - - - -
18/03:30am 26.4 SSE 3 4 1009.6 - 3.2 - - 10 - - - -
18/03:00am 26.8 SSE 8 10 1009.8 - 3.2 - - 10 - - - -
18/02:30am 26.7 SE 9 12 1010.2 - 3.2 - - 10 - - - -
18/02:00am 25.5 SSE 8 10 1010.5 - 3.2 - - 10 - - - -
18/01:30am 25.8 SSW 5 7 1009.9 - 3.2 - Partly cloudy 10 - - - -
18/01:00am 26.1 SSW 5 7 1010.1 - 3.2 - - 10 - - - -
18/12:30am 26.4 SSW 5 7 1010.0 - 3.2 - - 10 - - - -
18/12:00am 26.6 SSW 5 7 1010.2 - 3.2 - - 10 - - - -
 
Date/Time
WST
Temp
°C
Wind Pressure Rain since
9am
mm
Weather Cloud Vis
km
Sea
Height
m
Swell
Dir  Spd
kts
Gust
kts
hPa Trend Height
m
Period
s
Dir
17/11:30pm 26.9 SSW 7 9 1010.5 - 3.2 - Partly cloudy 10 - - - -
17/11:00pm 27.3 S 4 7 1010.9 - 3.2 - - 10 - - - -
17/10:30pm 27.7 SSE 11 15 1010.6 - 3.2 - Partly cloudy 10 - - - -
17/10:00pm 27.0 SSE 7 12 1011.1 - 3.2 - Partly cloudy 10 - - - -
17/09:30pm 27.1 S 8 10 1010.5 - 3.2 - - 10 - - - -

Other Formats:

Comma delimited format used in spreadsheet applications
http://www.bom.gov.au/fwo/IDW60701/IDW60701.94302.axf

JavaScript Object Notation format (JSON) in row-major order
http://www.bom.gov.au/fwo/IDW60701/IDW60701.94302.json